sensor_id;sensor_type;location;lat;lon;timestamp;pressure;altitude;pressure_sealevel;temperature;humidity
66547;BME280;53400;50.364;14.874;2023-04-01T00:00:47;96962.53;;;8.28;100.00
66547;BME280;53400;50.364;14.874;2023-04-01T00:03:15;96959.88;;;8.28;100.00
66547;BME280;53400;50.364;14.874;2023-04-01T00:05:41;96964.16;;;8.09;100.00
66547;BME280;53400;50.364;14.874;2023-04-01T00:08:07;96964.91;;;8.24;100.00
66547;BME280;53400;50.364;14.874;2023-04-01T00:10:35;96964.13;;;8.29;100.00
66547;BME280;53400;50.364;14.874;2023-04-01T00:13:01;96955.09;;;8.04;100.00
66547;BME280;53400;50.364;14.874;2023-04-01T00:15:27;96955.91;;;8.05;100.00
66547;BME280;53400;50.364;14.874;2023-04-01T00:17:53;96960.91;;;8.27;100.00
66547;BME280;53400;50.364;14.874;2023-04-01T00:20:20;96951.88;;;8.28;100.00
66547;BME280;53400;50.364;14.874;2023-04-01T00:22:47;96958.25;;;8.27;100.00
66547;BME280;53400;50.364;14.874;2023-04-01T00:25:13;96942.03;;;8.03;100.00
66547;BME280;53400;50.364;14.874;2023-04-01T00:27:41;96941.81;;;7.94;100.00
66547;BME280;53400;50.364;14.874;2023-04-01T00:30:08;96947.38;;;7.98;100.00
66547;BME280;53400;50.364;14.874;2023-04-01T00:32:34;96952.69;;;8.13;100.00
66547;BME280;53400;50.364;14.874;2023-04-01T00:35:00;96942.06;;;7.98;100.00
66547;BME280;53400;50.364;14.874;2023-04-01T00:37:27;96951.91;;;8.02;100.00
66547;BME280;53400;50.364;14.874;2023-04-01T00:39:56;96948.94;;;8.09;100.00
66547;BME280;53400;50.364;14.874;2023-04-01T00:42:22;96942.56;;;8.10;100.00
66547;BME280;53400;50.364;14.874;2023-04-01T00:44:52;96942.00;;;8.28;100.00
66547;BME280;53400;50.364;14.874;2023-04-01T00:47:19;96946.56;;;8.02;100.00
66547;BME280;53400;50.364;14.874;2023-04-01T00:49:48;96942.28;;;8.12;100.00
66547;BME280;53400;50.364;14.874;2023-04-01T00:52:18;96946.03;;;8.05;100.00
66547;BME280;53400;50.364;14.874;2023-04-01T00:54:46;96936.19;;;7.91;100.00
66547;BME280;53400;50.364;14.874;2023-04-01T00:57:16;96935.13;;;7.81;100.00
66547;BME280;53400;50.364;14.874;2023-04-01T00:59:46;96933.53;;;7.75;100.00
66547;BME280;53400;50.364;14.874;2023-04-01T01:02:15;96938.06;;;7.54;100.00
66547;BME280;53400;50.364;14.874;2023-04-01T01:04:41;96934.59;;;7.54;100.00
66547;BME280;53400;50.364;14.874;2023-04-01T01:07:20;96942.34;;;7.40;100.00
66547;BME280;53400;50.364;14.874;2023-04-01T01:09:54;96942.06;;;7.42;100.00
66547;BME280;53400;50.364;14.874;2023-04-01T01:12:26;96938.06;;;7.59;100.00
66547;BME280;53400;50.364;14.874;2023-04-01T01:15:01;96939.94;;;7.33;100.00
66547;BME280;53400;50.364;14.874;2023-04-01T01:17:35;96937.00;;;7.45;100.00
66547;BME280;53400;50.364;14.874;2023-04-01T01:23:12;96935.94;;;7.41;100.00
66547;BME280;53400;50.364;14.874;2023-04-01T01:25:52;96939.13;;;7.28;100.00
66547;BME280;53400;50.364;14.874;2023-04-01T01:28:33;96937.25;;;7.23;100.00
66547;BME280;53400;50.364;14.874;2023-04-01T01:31:08;96937.81;;;7.30;100.00
66547;BME280;53400;50.364;14.874;2023-04-01T01:34:01;96941.56;;;7.40;100.00
66547;BME280;53400;50.364;14.874;2023-04-01T01:36:33;96941.53;;;7.24;100.00
66547;BME280;53400;50.364;14.874;2023-04-01T01:39:01;96938.06;;;7.29;100.00
66547;BME280;53400;50.364;14.874;2023-04-01T01:41:27;96939.91;;;7.23;100.00
66547;BME280;53400;50.364;14.874;2023-04-01T01:43:56;96932.75;;;7.29;100.00
66547;BME280;53400;50.364;14.874;2023-04-01T01:46:24;96941.53;;;7.24;100.00
66547;BME280;53400;50.364;14.874;2023-04-01T01:48:51;96937.78;;;7.20;100.00
66547;BME280;53400;50.364;14.874;2023-04-01T01:51:18;96939.09;;;7.18;100.00
66547;BME280;53400;50.364;14.874;2023-04-01T01:53:47;96943.13;;;7.30;100.00
66547;BME280;53400;50.364;14.874;2023-04-01T01:56:13;96942.59;;;7.28;100.00
66547;BME280;53400;50.364;14.874;2023-04-01T01:58:43;96934.84;;;7.17;100.00
66547;BME280;53400;50.364;14.874;2023-04-01T02:01:13;96940.44;;;7.15;100.00
66547;BME280;53400;50.364;14.874;2023-04-01T02:03:42;96943.38;;;7.19;100.00
66547;BME280;53400;50.364;14.874;2023-04-01T02:06:11;96942.56;;;7.18;100.00
66547;BME280;53400;50.364;14.874;2023-04-01T02:08:41;96943.09;;;7.15;100.00
66547;BME280;53400;50.364;14.874;2023-04-01T02:11:12;96938.06;;;7.19;100.00
66547;BME280;53400;50.364;14.874;2023-04-01T02:13:41;96935.41;;;7.19;100.00
66547;BME280;53400;50.364;14.874;2023-04-01T02:16:12;96930.59;;;7.16;100.00
66547;BME280;53400;50.364;14.874;2023-04-01T02:18:41;96933.25;;;7.16;100.00
66547;BME280;53400;50.364;14.874;2023-04-01T02:21:12;96928.72;;;7.16;100.00
66547;BME280;53400;50.364;14.874;2023-04-01T02:23:40;96934.59;;;7.13;100.00
66547;BME280;53400;50.364;14.874;2023-04-01T02:26:09;96934.31;;;7.20;100.00
66547;BME280;53400;50.364;14.874;2023-04-01T02:28:38;96937.25;;;7.13;100.00
66547;BME280;53400;50.364;14.874;2023-04-01T02:31:04;96944.94;;;7.04;100.00
66547;BME280;53400;50.364;14.874;2023-04-01T02:33:31;96940.72;;;7.13;100.00
66547;BME280;53400;50.364;14.874;2023-04-01T02:35:57;96945.50;;;7.27;100.00
66547;BME280;53400;50.364;14.874;2023-04-01T02:38:23;96941.50;;;7.19;100.00
66547;BME280;53400;50.364;14.874;2023-04-01T02:40:50;96944.13;;;6.99;100.00
66547;BME280;53400;50.364;14.874;2023-04-01T02:43:18;96948.38;;;6.95;100.00
66547;BME280;53400;50.364;14.874;2023-04-01T02:45:45;96952.63;;;6.90;100.00
66547;BME280;53400;50.364;14.874;2023-04-01T02:48:11;96956.88;;;6.86;100.00
66547;BME280;53400;50.364;14.874;2023-04-01T02:50:38;96950.50;;;6.93;100.00
66547;BME280;53400;50.364;14.874;2023-04-01T02:53:04;96952.66;;;7.01;100.00
66547;BME280;53400;50.364;14.874;2023-04-01T02:55:31;96955.28;;;6.90;100.00
66547;BME280;53400;50.364;14.874;2023-04-01T02:57:58;96951.53;;;6.76;100.00
66547;BME280;53400;50.364;14.874;2023-04-01T03:00:26;96963.56;;;6.99;100.00
66547;BME280;53400;50.364;14.874;2023-04-01T03:02:52;96957.16;;;6.95;100.00
66547;BME280;53400;50.364;14.874;2023-04-01T03:05:18;96957.66;;;6.87;100.00
66547;BME280;53400;50.364;14.874;2023-04-01T03:07:44;96958.22;;;6.99;100.00
66547;BME280;53400;50.364;14.874;2023-04-01T03:10:10;96968.06;;;6.94;100.00
66547;BME280;53400;50.364;14.874;2023-04-01T03:12:36;96965.41;;;6.88;100.00
66547;BME280;53400;50.364;14.874;2023-04-01T03:15:03;96966.19;;;6.79;100.00
66547;BME280;53400;50.364;14.874;2023-04-01T03:17:31;96976.03;;;6.94;100.00
66547;BME280;53400;50.364;14.874;2023-04-01T03:19:56;96971.81;;;6.98;100.00
66547;BME280;53400;50.364;14.874;2023-04-01T03:22:22;96973.91;;;6.85;100.00
66547;BME280;53400;50.364;14.874;2023-04-01T03:24:49;96967.50;;;6.86;100.00
66547;BME280;53400;50.364;14.874;2023-04-01T03:27:15;96977.19;;;7.13;100.00
66547;BME280;53400;50.364;14.874;2023-04-01T03:29:41;96972.84;;;6.97;100.00
66547;BME280;53400;50.364;14.874;2023-04-01T03:32:07;96982.72;;;6.96;100.00
66547;BME280;53400;50.364;14.874;2023-04-01T03:34:34;96987.50;;;6.94;100.00
66547;BME280;53400;50.364;14.874;2023-04-01T03:37:00;96982.47;;;7.03;100.00
66547;BME280;53400;50.364;14.874;2023-04-01T03:39:26;96984.06;;;7.04;100.00
66547;BME280;53400;50.364;14.874;2023-04-01T03:41:52;96986.44;;;6.95;100.00
66547;BME280;53400;50.364;14.874;2023-04-01T03:44:18;96989.16;;;7.10;100.00
66547;BME280;53400;50.364;14.874;2023-04-01T03:46:44;96991.00;;;7.15;100.00
66547;BME280;53400;50.364;14.874;2023-04-01T03:49:10;96988.59;;;7.03;100.00
66547;BME280;53400;50.364;14.874;2023-04-01T03:51:38;96991.03;;;7.20;100.00
66547;BME280;53400;50.364;14.874;2023-04-01T03:54:05;96991.84;;;7.16;100.00
66547;BME280;53400;50.364;14.874;2023-04-01T03:56:31;96996.03;;;7.01;100.00
66547;BME280;53400;50.364;14.874;2023-04-01T03:58:57;96999.81;;;7.21;100.00
66547;BME280;53400;50.364;14.874;2023-04-01T04:01:24;96996.41;;;7.30;100.00
66547;BME280;53400;50.364;14.874;2023-04-01T04:03:50;97005.41;;;7.14;100.00
66547;BME280;53400;50.364;14.874;2023-04-01T04:06:17;97009.47;;;7.37;100.00
66547;BME280;53400;50.364;14.874;2023-04-01T04:08:45;97002.72;;;7.09;100.00
66547;BME280;53400;50.364;14.874;2023-04-01T04:11:11;97007.00;;;7.20;100.00
66547;BME280;53400;50.364;14.874;2023-04-01T04:13:37;97007.50;;;7.02;100.00
66547;BME280;53400;50.364;14.874;2023-04-01T04:16:04;97008.84;;;7.15;100.00
66547;BME280;53400;50.364;14.874;2023-04-01T04:18:30;97010.47;;;7.16;100.00
66547;BME280;53400;50.364;14.874;2023-04-01T04:20:56;97011.53;;;7.09;100.00
66547;BME280;53400;50.364;14.874;2023-04-01T04:23:22;97013.66;;;7.12;100.00
66547;BME280;53400;50.364;14.874;2023-04-01T04:25:57;97018.22;;;7.22;100.00
66547;BME280;53400;50.364;14.874;2023-04-01T04:28:24;97022.97;;;7.15;100.00
66547;BME280;53400;50.364;14.874;2023-04-01T04:30:50;97018.72;;;7.19;100.00
66547;BME280;53400;50.364;14.874;2023-04-01T04:33:16;97024.13;;;7.55;100.00
66547;BME280;53400;50.364;14.874;2023-04-01T04:35:42;97024.88;;;7.35;100.00
66547;BME280;53400;50.364;14.874;2023-04-01T04:38:08;97027.00;;;7.33;100.00
66547;BME280;53400;50.364;14.874;2023-04-01T04:40:36;97026.22;;;7.27;100.00
66547;BME280;53400;50.364;14.874;2023-04-01T04:43:03;97022.50;;;7.39;100.00
66547;BME280;53400;50.364;14.874;2023-04-01T04:45:29;97025.38;;;7.27;100.00
66547;BME280;53400;50.364;14.874;2023-04-01T04:47:55;97029.94;;;7.31;100.00
66547;BME280;53400;50.364;14.874;2023-04-01T04:50:22;97030.00;;;7.72;100.00
66547;BME280;53400;50.364;14.874;2023-04-01T04:52:49;97034.53;;;7.67;100.00
66547;BME280;53400;50.364;14.874;2023-04-01T04:55:15;97028.63;;;7.44;100.00
66547;BME280;53400;50.364;14.874;2023-04-01T04:57:41;97036.88;;;7.27;100.00
66547;BME280;53400;50.364;14.874;2023-04-01T05:00:10;97027.69;;;6.93;100.00
66547;BME280;53400;50.364;14.874;2023-04-01T05:02:36;97032.22;;;6.92;100.00
66547;BME280;53400;50.364;14.874;2023-04-01T05:05:03;97029.31;;;7.09;100.00
66547;BME280;53400;50.364;14.874;2023-04-01T05:07:29;97029.16;;;7.31;100.00
66547;BME280;53400;50.364;14.874;2023-04-01T05:09:56;97036.56;;;7.24;100.00
66547;BME280;53400;50.364;14.874;2023-04-01T05:12:21;97035.81;;;7.39;100.00
66547;BME280;53400;50.364;14.874;2023-04-01T05:14:47;97033.75;;;7.61;100.00
66547;BME280;53400;50.364;14.874;2023-04-01T05:17:15;97038.00;;;7.52;100.00
66547;BME280;53400;50.364;14.874;2023-04-01T05:19:41;97037.47;;;7.70;100.00
66547;BME280;53400;50.364;14.874;2023-04-01T05:22:06;97038.53;;;7.64;100.00
66547;BME280;53400;50.364;14.874;2023-04-01T05:24:33;97042.25;;;7.68;100.00
66547;BME280;53400;50.364;14.874;2023-04-01T05:26:59;97043.03;;;7.53;100.00
66547;BME280;53400;50.364;14.874;2023-04-01T05:29:25;97043.59;;;7.66;100.00
66547;BME280;53400;50.364;14.874;2023-04-01T05:31:51;97045.72;;;7.64;100.00
66547;BME280;53400;50.364;14.874;2023-04-01T05:34:19;97046.75;;;7.57;100.00
66547;BME280;53400;50.364;14.874;2023-04-01T05:36:45;97053.41;;;7.45;100.00
66547;BME280;53400;50.364;14.874;2023-04-01T05:39:11;97047.81;;;7.41;100.00
66547;BME280;53400;50.364;14.874;2023-04-01T05:41:37;97049.16;;;7.54;100.00
66547;BME280;53400;50.364;14.874;2023-04-01T05:44:04;97054.75;;;7.47;100.00
66547;BME280;53400;50.364;14.874;2023-04-01T05:46:31;97050.97;;;7.33;100.00
66547;BME280;53400;50.364;14.874;2023-04-01T05:48:57;97054.66;;;7.17;100.00
66547;BME280;53400;50.364;14.874;2023-04-01T05:51:24;97048.06;;;7.34;100.00
66547;BME280;53400;50.364;14.874;2023-04-01T05:53:50;97045.44;;;7.55;100.00
66547;BME280;53400;50.364;14.874;2023-04-01T05:56:16;97053.69;;;7.53;100.00
66547;BME280;53400;50.364;14.874;2023-04-01T05:58:42;97053.16;;;7.46;100.00
66547;BME280;53400;50.364;14.874;2023-04-01T06:01:10;97047.53;;;7.27;100.00
66547;BME280;53400;50.364;14.874;2023-04-01T06:03:36;97052.34;;;7.41;100.00
66547;BME280;53400;50.364;14.874;2023-04-01T06:06:03;97058.00;;;7.80;100.00
66547;BME280;53400;50.364;14.874;2023-04-01T06:08:33;97055.59;;;7.78;100.00
66547;BME280;53400;50.364;14.874;2023-04-01T06:11:06;97067.84;;;7.74;100.00
66547;BME280;53400;50.364;14.874;2023-04-01T06:13:54;97064.41;;;7.89;100.00
66547;BME280;53400;50.364;14.874;2023-04-01T06:16:31;97064.66;;;7.88;100.00
66547;BME280;53400;50.364;14.874;2023-04-01T06:19:25;97069.75;;;7.89;100.00
66547;BME280;53400;50.364;14.874;2023-04-01T06:22:11;97070.28;;;8.07;100.00
66547;BME280;53400;50.364;14.874;2023-04-01T06:27:55;97075.88;;;7.90;100.00
66547;BME280;53400;50.364;14.874;2023-04-01T06:30:38;97078.81;;;7.83;100.00
66547;BME280;53400;50.364;14.874;2023-04-01T06:36:26;97072.16;;;8.11;100.00
66547;BME280;53400;50.364;14.874;2023-04-01T06:41:57;97084.69;;;8.11;100.00
66547;BME280;53400;50.364;14.874;2023-04-01T06:44:34;97079.34;;;8.05;100.00
66547;BME280;53400;50.364;14.874;2023-04-01T06:47:18;97092.94;;;8.09;100.00
66547;BME280;53400;50.364;14.874;2023-04-01T06:49:55;97088.94;;;8.12;100.00
66547;BME280;53400;50.364;14.874;2023-04-01T06:52:30;97091.88;;;8.15;100.00
66547;BME280;53400;50.364;14.874;2023-04-01T06:55:12;97092.69;;;8.16;100.00
66547;BME280;53400;50.364;14.874;2023-04-01T06:57:47;97091.09;;;8.20;100.00
66547;BME280;53400;50.364;14.874;2023-04-01T07:00:19;97092.16;;;8.19;100.00
66547;BME280;53400;50.364;14.874;2023-04-01T07:02:52;97099.88;;;8.25;100.00
66547;BME280;53400;50.364;14.874;2023-04-01T07:05:23;97096.94;;;8.27;100.00
66547;BME280;53400;50.364;14.874;2023-04-01T07:07:54;97096.97;;;8.22;100.00
66547;BME280;53400;50.364;14.874;2023-04-01T07:10:28;97096.69;;;8.23;100.00
66547;BME280;53400;50.364;14.874;2023-04-01T07:13:00;97096.16;;;8.32;100.00
66547;BME280;53400;50.364;14.874;2023-04-01T07:15:33;97102.31;;;8.47;100.00
66547;BME280;53400;50.364;14.874;2023-04-01T07:18:05;97103.34;;;8.72;100.00
66547;BME280;53400;50.364;14.874;2023-04-01T07:20:36;97096.63;;;8.85;100.00
66547;BME280;53400;50.364;14.874;2023-04-01T07:23:06;97106.47;;;9.05;100.00
66547;BME280;53400;50.364;14.874;2023-04-01T07:25:35;97110.38;;;9.28;100.00
66547;BME280;53400;50.364;14.874;2023-04-01T07:28:05;97111.47;;;9.27;100.00
66547;BME280;53400;50.364;14.874;2023-04-01T07:30:42;97112.84;;;9.14;100.00
66547;BME280;53400;50.364;14.874;2023-04-01T07:33:15;97110.22;;;8.99;100.00
66547;BME280;53400;50.364;14.874;2023-04-01T07:35:46;97117.94;;;9.05;100.00
66547;BME280;53400;50.364;14.874;2023-04-01T07:38:19;97110.25;;;8.83;100.00
66547;BME280;53400;50.364;14.874;2023-04-01T07:40:50;97112.09;;;8.93;100.00
66547;BME280;53400;50.364;14.874;2023-04-01T07:43:39;97113.09;;;9.12;100.00
66547;BME280;53400;50.364;14.874;2023-04-01T07:46:14;97125.16;;;9.00;100.00
66547;BME280;53400;50.364;14.874;2023-04-01T07:48:54;97116.91;;;9.01;100.00
66547;BME280;53400;50.364;14.874;2023-04-01T07:51:31;97130.47;;;9.10;100.00
66547;BME280;53400;50.364;14.874;2023-04-01T07:54:05;97131.56;;;9.04;100.00
66547;BME280;53400;50.364;14.874;2023-04-01T07:56:39;97124.38;;;8.99;100.00
66547;BME280;53400;50.364;14.874;2023-04-01T07:59:17;97128.91;;;8.99;100.00
66547;BME280;53400;50.364;14.874;2023-04-01T08:01:50;97126.81;;;8.80;100.00
66547;BME280;53400;50.364;14.874;2023-04-01T08:04:28;97140.44;;;8.89;100.00
66547;BME280;53400;50.364;14.874;2023-04-01T08:07:05;97129.97;;;8.98;100.00
66547;BME280;53400;50.364;14.874;2023-04-01T08:09:42;97135.50;;;9.27;100.00
66547;BME280;53400;50.364;14.874;2023-04-01T08:12:21;97132.84;;;9.27;100.00
66547;BME280;53400;50.364;14.874;2023-04-01T08:15:05;97136.72;;;9.60;100.00
66547;BME280;53400;50.364;14.874;2023-04-01T08:17:40;97132.16;;;9.65;100.00
66547;BME280;53400;50.364;14.874;2023-04-01T08:20:22;97131.53;;;9.79;100.00
66547;BME280;53400;50.364;14.874;2023-04-01T08:22:52;97131.00;;;9.77;100.00
66547;BME280;53400;50.364;14.874;2023-04-01T08:25:25;97137.78;;;10.08;100.00
66547;BME280;53400;50.364;14.874;2023-04-01T08:27:55;97125.69;;;9.72;100.00
66547;BME280;53400;50.364;14.874;2023-04-01T08:30:35;97119.88;;;10.04;100.00
66547;BME280;53400;50.364;14.874;2023-04-01T08:33:10;97129.28;;;10.01;100.00
66547;BME280;53400;50.364;14.874;2023-04-01T08:35:39;97137.69;;;10.19;100.00
66547;BME280;53400;50.364;14.874;2023-04-01T08:38:12;97126.69;;;10.30;100.00
66547;BME280;53400;50.364;14.874;2023-04-01T08:40:59;97139.38;;;10.09;99.62
66547;BME280;53400;50.364;14.874;2023-04-01T08:43:43;97135.19;;;9.98;99.87
66547;BME280;53400;50.364;14.874;2023-04-01T08:46:33;97132.53;;;9.93;100.00
66547;BME280;53400;50.364;14.874;2023-04-01T08:49:16;97137.97;;;9.78;100.00
66547;BME280;53400;50.364;14.874;2023-04-01T08:52:02;97135.72;;;9.95;100.00
66547;BME280;53400;50.364;14.874;2023-04-01T08:54:46;97143.69;;;10.00;99.84
66547;BME280;53400;50.364;14.874;2023-04-01T08:57:24;97133.66;;;10.21;96.56
66547;BME280;53400;50.364;14.874;2023-04-01T09:00:05;97129.41;;;10.20;96.77
66547;BME280;53400;50.364;14.874;2023-04-01T09:03:03;97139.53;;;10.28;96.55
66547;BME280;53400;50.364;14.874;2023-04-01T09:05:56;97128.97;;;10.47;96.27
66547;BME280;53400;50.364;14.874;2023-04-01T09:08:35;97130.34;;;10.98;93.59
66547;BME280;53400;50.364;14.874;2023-04-01T09:11:23;97132.47;;;11.01;92.20
66547;BME280;53400;50.364;14.874;2023-04-01T09:17:42;97142.53;;;11.14;90.64
66547;BME280;53400;50.364;14.874;2023-04-01T09:20:32;97144.28;;;11.00;90.43
66547;BME280;53400;50.364;14.874;2023-04-01T09:23:17;97132.28;;;10.92;88.46
66547;BME280;53400;50.364;14.874;2023-04-01T09:26:02;97139.94;;;11.04;88.93
66547;BME280;53400;50.364;14.874;2023-04-01T09:28:42;97138.53;;;11.12;89.81
66547;BME280;53400;50.364;14.874;2023-04-01T09:31:18;97147.25;;;11.22;91.92
66547;BME280;53400;50.364;14.874;2023-04-01T09:34:08;97144.50;;;11.03;89.95
66547;BME280;53400;50.364;14.874;2023-04-01T09:36:47;97140.16;;;11.08;91.54
66547;BME280;53400;50.364;14.874;2023-04-01T09:39:32;97143.84;;;11.17;90.75
66547;BME280;53400;50.364;14.874;2023-04-01T09:42:15;97136.50;;;10.98;89.45
66547;BME280;53400;50.364;14.874;2023-04-01T09:44:45;97141.94;;;10.93;92.35
66547;BME280;53400;50.364;14.874;2023-04-01T09:47:29;97147.78;;;10.95;90.93
66547;BME280;53400;50.364;14.874;2023-04-01T09:50:28;97143.50;;;11.23;92.58
66547;BME280;53400;50.364;14.874;2023-04-01T09:53:05;97145.69;;;11.64;93.01
66547;BME280;53400;50.364;14.874;2023-04-01T09:59:06;97154.81;;;11.87;91.42
66547;BME280;53400;50.364;14.874;2023-04-01T10:02:04;97136.25;;;11.24;89.17
66547;BME280;53400;50.364;14.874;2023-04-01T10:08:19;97146.97;;;11.48;87.15
66547;BME280;53400;50.364;14.874;2023-04-01T10:14:13;97156.13;;;11.66;84.27
66547;BME280;53400;50.364;14.874;2023-04-01T10:20:14;97157.13;;;12.13;83.79
66547;BME280;53400;50.364;14.874;2023-04-01T10:23:00;97152.34;;;12.10;83.44
66547;BME280;53400;50.364;14.874;2023-04-01T10:29:03;97149.44;;;12.25;80.80
66547;BME280;53400;50.364;14.874;2023-04-01T10:31:53;97156.13;;;12.28;79.50
66547;BME280;53400;50.364;14.874;2023-04-01T10:37:34;97166.34;;;12.07;83.83
66547;BME280;53400;50.364;14.874;2023-04-01T10:40:36;97157.03;;;11.56;91.86
66547;BME280;53400;50.364;14.874;2023-04-01T10:43:19;97155.63;;;11.16;90.56
66547;BME280;53400;50.364;14.874;2023-04-01T10:46:17;97144.06;;;11.20;90.48
66547;BME280;53400;50.364;14.874;2023-04-01T10:49:10;97150.03;;;11.36;85.36
66547;BME280;53400;50.364;14.874;2023-04-01T10:55:19;97144.38;;;12.24;83.25
66547;BME280;53400;50.364;14.874;2023-04-01T11:01:16;97144.50;;;12.32;83.78
66547;BME280;53400;50.364;14.874;2023-04-01T11:10:17;97146.47;;;11.89;81.83
66547;BME280;53400;50.364;14.874;2023-04-01T11:13:13;97151.03;;;12.07;82.65
66547;BME280;53400;50.364;14.874;2023-04-01T11:16:09;97140.03;;;12.09;85.54
66547;BME280;53400;50.364;14.874;2023-04-01T11:19:07;97140.63;;;12.38;87.68
66547;BME280;53400;50.364;14.874;2023-04-01T11:24:50;97134.75;;;12.55;83.16
66547;BME280;53400;50.364;14.874;2023-04-01T11:27:36;97138.50;;;12.22;83.42
66547;BME280;53400;50.364;14.874;2023-04-01T11:30:17;97135.97;;;12.11;81.72
66547;BME280;53400;50.364;14.874;2023-04-01T11:32:59;97143.13;;;12.16;83.04
66547;BME280;53400;50.364;14.874;2023-04-01T11:35:55;97135.00;;;12.21;81.82
66547;BME280;53400;50.364;14.874;2023-04-01T11:38:38;97128.56;;;12.55;81.52
66547;BME280;53400;50.364;14.874;2023-04-01T11:41:22;97124.84;;;12.83;81.09
66547;BME280;53400;50.364;14.874;2023-04-01T11:44:07;97135.38;;;13.54;80.36
66547;BME280;53400;50.364;14.874;2023-04-01T11:46:42;97130.84;;;13.91;76.21
66547;BME280;53400;50.364;14.874;2023-04-01T11:49:29;97129.44;;;13.93;73.44
66547;BME280;53400;50.364;14.874;2023-04-01T11:52:17;97131.22;;;13.98;74.23
66547;BME280;53400;50.364;14.874;2023-04-01T11:54:59;97139.19;;;14.03;74.45
66547;BME280;53400;50.364;14.874;2023-04-01T11:57:50;97129.16;;;14.17;73.77
66547;BME280;53400;50.364;14.874;2023-04-01T12:00:44;97133.81;;;14.03;70.85
66547;BME280;53400;50.364;14.874;2023-04-01T12:03:37;97120.97;;;14.00;70.59
66547;BME280;53400;50.364;14.874;2023-04-01T12:06:13;97131.66;;;13.91;70.45
66547;BME280;53400;50.364;14.874;2023-04-01T12:08:48;97136.47;;;13.67;72.67
66547;BME280;53400;50.364;14.874;2023-04-01T12:11:24;97148.44;;;13.47;74.57
66547;BME280;53400;50.364;14.874;2023-04-01T12:14:01;97151.59;;;13.63;72.47
66547;BME280;53400;50.364;14.874;2023-04-01T12:16:46;97145.06;;;13.27;74.72
66547;BME280;53400;50.364;14.874;2023-04-01T12:19:21;97152.06;;;13.23;74.87
66547;BME280;53400;50.364;14.874;2023-04-01T12:21:59;97158.97;;;13.29;73.32
66547;BME280;53400;50.364;14.874;2023-04-01T12:24:45;97153.97;;;13.23;73.93
66547;BME280;53400;50.364;14.874;2023-04-01T12:27:41;97153.59;;;13.29;74.82
66547;BME280;53400;50.364;14.874;2023-04-01T12:30:32;97153.81;;;13.47;75.37
66547;BME280;53400;50.364;14.874;2023-04-01T12:33:29;97156.88;;;13.82;75.67
66547;BME280;53400;50.364;14.874;2023-04-01T12:36:11;97154.19;;;13.82;74.18
66547;BME280;53400;50.364;14.874;2023-04-01T12:38:50;97163.28;;;13.30;75.41
66547;BME280;53400;50.364;14.874;2023-04-01T12:41:30;97149.97;;;13.06;72.87
66547;BME280;53400;50.364;14.874;2023-04-01T12:44:34;97159.38;;;12.90;71.65
66547;BME280;53400;50.364;14.874;2023-04-01T12:47:29;97154.41;;;12.83;72.32
66547;BME280;53400;50.364;14.874;2023-04-01T12:50:33;97148.56;;;12.95;73.56
66547;BME280;53400;50.364;14.874;2023-04-01T12:53:23;97153.53;;;13.02;73.49
66547;BME280;53400;50.364;14.874;2023-04-01T12:55:56;97147.19;;;12.98;73.70
66547;BME280;53400;50.364;14.874;2023-04-01T13:04:55;97158.56;;;12.43;73.87
66547;BME280;53400;50.364;14.874;2023-04-01T13:10:30;97158.34;;;12.39;76.40
66547;BME280;53400;50.364;14.874;2023-04-01T13:13:28;97171.44;;;12.27;73.35
66547;BME280;53400;50.364;14.874;2023-04-01T13:16:05;97175.75;;;11.61;80.35
66547;BME280;53400;50.364;14.874;2023-04-01T13:18:52;97188.63;;;10.82;87.02
66547;BME280;53400;50.364;14.874;2023-04-01T13:21:33;97196.13;;;10.46;88.81
66547;BME280;53400;50.364;14.874;2023-04-01T13:24:11;97204.50;;;10.39;91.41
66547;BME280;53400;50.364;14.874;2023-04-01T13:26:53;97196.31;;;10.60;92.68
66547;BME280;53400;50.364;14.874;2023-04-01T13:29:31;97193.84;;;10.97;93.52
66547;BME280;53400;50.364;14.874;2023-04-01T13:32:10;97184.53;;;11.19;89.60
66547;BME280;53400;50.364;14.874;2023-04-01T13:34:52;97188.75;;;11.97;92.95
66547;BME280;53400;50.364;14.874;2023-04-01T13:37:31;97189.84;;;12.34;87.09
66547;BME280;53400;50.364;14.874;2023-04-01T13:40:26;97182.06;;;12.51;87.85
66547;BME280;53400;50.364;14.874;2023-04-01T13:42:57;97181.53;;;12.68;88.27
66547;BME280;53400;50.364;14.874;2023-04-01T13:45:30;97179.59;;;12.55;87.37
66547;BME280;53400;50.364;14.874;2023-04-01T13:51:29;97186.38;;;12.33;90.03
66547;BME280;53400;50.364;14.874;2023-04-01T13:54:26;97188.97;;;12.57;88.99
66547;BME280;53400;50.364;14.874;2023-04-01T13:57:14;97182.66;;;12.48;87.20
66547;BME280;53400;50.364;14.874;2023-04-01T14:00:03;97180.69;;;12.16;87.45
66547;BME280;53400;50.364;14.874;2023-04-01T14:06:06;97176.66;;;12.19;89.27
66547;BME280;53400;50.364;14.874;2023-04-01T14:08:53;97173.16;;;12.18;86.20
66547;BME280;53400;50.364;14.874;2023-04-01T14:11:27;97175.03;;;12.55;80.65
66547;BME280;53400;50.364;14.874;2023-04-01T14:14:05;97174.78;;;12.71;80.52
66547;BME280;53400;50.364;14.874;2023-04-01T14:16:51;97169.44;;;12.52;79.56
66547;BME280;53400;50.364;14.874;2023-04-01T14:19:35;97168.13;;;12.49;79.22
66547;BME280;53400;50.364;14.874;2023-04-01T14:22:13;97168.16;;;12.96;81.68
66547;BME280;53400;50.364;14.874;2023-04-01T14:27:46;97173.72;;;12.85;75.45
66547;BME280;53400;50.364;14.874;2023-04-01T14:30:26;97168.16;;;12.82;75.02
66547;BME280;53400;50.364;14.874;2023-04-01T14:33:01;97181.47;;;12.35;76.02
66547;BME280;53400;50.364;14.874;2023-04-01T14:35:38;97174.53;;;12.34;74.50
66547;BME280;53400;50.364;14.874;2023-04-01T14:38:19;97176.19;;;12.49;73.64
66547;BME280;53400;50.364;14.874;2023-04-01T14:41:00;97174.09;;;12.46;75.90